Time;durP1;ratioP1;P1;durP2;ratioP2;P2;SDS_P1;SDS_P2;PMS_P1;PMS_P2;Temp;Humidity;BMP_temperature;BMP_pressure;BME280_temperature;BME280_humidity;BME280_pressure;Samples;Min_cycle;Max_cycle;Signal;HPM_P1;HPM_P2
2022/11/14 00:01:08;;;;;;;23.10;12.60;;;;;;;;;;5120057;27;20421;-74
2022/11/14 00:03:35;;;;;;;21.88;12.70;;;;;;;;;;5119612;27;20133;-74
2022/11/14 00:06:05;;;;;;;24.50;13.52;;;;;;;;;;5110211;27;20102;-74
2022/11/14 00:08:33;;;;;;;24.75;14.02;;;;;;;;;;5112994;27;20044;-74
2022/11/14 00:11:00;;;;;;;27.40;13.95;;;;;;;;;;5108968;27;20102;-74
2022/11/14 00:13:27;;;;;;;24.48;13.80;;;;;;;;;;5113799;27;20047;-74
2022/11/14 00:15:55;;;;;;;28.27;14.88;;;;;;;;;;5110358;27;20048;-74
2022/11/14 00:18:23;;;;;;;28.75;14.65;;;;;;;;;;5116709;27;20087;-74
2022/11/14 00:20:51;;;;;;;30.70;14.32;;;;;;;;;;5133134;27;20051;-74
2022/11/14 00:23:19;;;;;;;26.25;14.32;;;;;;;;;;5134557;27;20074;-74
2022/11/14 00:25:47;;;;;;;26.60;14.40;;;;;;;;;;5132243;27;20443;-74
2022/11/14 00:28:15;;;;;;;29.02;13.75;;;;;;;;;;5135848;27;20071;-74
2022/11/14 00:30:47;;;;;;;34.35;16.10;;;;;;;;;;5142178;27;20104;-74
2022/11/14 00:33:15;;;;;;;29.30;14.70;;;;;;;;;;5137554;27;20048;-74
2022/11/14 00:35:53;;;;;;;30.23;15.65;;;;;;;;;;5140556;27;20488;-74
2022/11/14 00:38:21;;;;;;;31.52;16.23;;;;;;;;;;5129885;27;20058;-74
2022/11/14 00:40:49;;;;;;;32.75;16.40;;;;;;;;;;5141567;27;20047;-74
2022/11/14 00:43:19;;;;;;;27.52;14.55;;;;;;;;;;5132556;27;20051;-74
2022/11/14 00:45:46;;;;;;;28.48;14.55;;;;;;;;;;5133629;27;20055;-74
2022/11/14 00:48:14;;;;;;;34.38;15.63;;;;;;;;;;5129257;27;20051;-74
2022/11/14 00:50:42;;;;;;;28.83;15.35;;;;;;;;;;5135625;27;20103;-74
2022/11/14 00:53:09;;;;;;;30.92;16.38;;;;;;;;;;5134327;27;20058;-74
2022/11/14 00:55:36;;;;;;;31.60;16.10;;;;;;;;;;5115531;27;20450;-74
2022/11/14 00:58:04;;;;;;;28.10;15.00;;;;;;;;;;5134588;27;20054;-74
2022/11/14 01:00:31;;;;;;;29.45;15.90;;;;;;;;;;5129830;27;20151;-74
2022/11/14 01:02:58;;;;;;;33.08;16.77;;;;;;;;;;5131791;27;20878;-74
2022/11/14 01:05:25;;;;;;;30.92;16.15;;;;;;;;;;5130378;27;20073;-74
2022/11/14 01:07:53;;;;;;;32.10;16.60;;;;;;;;;;5137950;27;20105;-74
2022/11/14 01:10:23;;;;;;;36.03;16.90;;;;;;;;;;5131606;27;20412;-74
2022/11/14 01:12:50;;;;;;;36.75;16.63;;;;;;;;;;5136773;27;20754;-74
2022/11/14 01:15:17;;;;;;;36.72;17.83;;;;;;;;;;5118535;27;20806;-74
2022/11/14 01:17:44;;;;;;;33.47;16.65;;;;;;;;;;5134027;27;20101;-74
2022/11/14 01:20:11;;;;;;;37.17;17.42;;;;;;;;;;5129337;27;20060;-74
2022/11/14 01:22:39;;;;;;;33.20;16.98;;;;;;;;;;5128648;27;20059;-74
2022/11/14 01:25:06;;;;;;;30.77;16.20;;;;;;;;;;5118246;27;20055;-74
2022/11/14 01:27:34;;;;;;;34.13;17.33;;;;;;;;;;5134372;27;20489;-74
2022/11/14 01:30:01;;;;;;;37.58;18.02;;;;;;;;;;5131818;27;20056;-74
2022/11/14 01:32:29;;;;;;;35.28;17.65;;;;;;;;;;5131817;27;20047;-74
2022/11/14 01:34:56;;;;;;;35.25;17.98;;;;;;;;;;5143265;27;20050;-74
2022/11/14 01:37:23;;;;;;;34.95;17.52;;;;;;;;;;5137695;27;20051;-74
2022/11/14 01:39:50;;;;;;;35.03;17.80;;;;;;;;;;5138981;27;20052;-74
2022/11/14 01:42:18;;;;;;;40.22;18.52;;;;;;;;;;5133346;27;20519;-74
2022/11/14 01:44:51;;;;;;;39.75;18.50;;;;;;;;;;5118766;27;20055;-74
2022/11/14 01:47:21;;;;;;;31.75;17.35;;;;;;;;;;5139889;27;20827;-74
2022/11/14 01:49:51;;;;;;;40.22;18.65;;;;;;;;;;5137546;27;20056;-74
2022/11/14 01:52:33;;;;;;;37.70;18.13;;;;;;;;;;5140700;27;20071;-74
2022/11/14 01:55:01;;;;;;;37.95;18.52;;;;;;;;;;5137053;27;20058;-74
2022/11/14 01:57:34;;;;;;;40.83;18.45;;;;;;;;;;5120002;27;20139;-74
2022/11/14 02:00:08;;;;;;;37.63;18.88;;;;;;;;;;5139531;27;20088;-74
2022/11/14 02:02:35;;;;;;;43.33;20.00;;;;;;;;;;5140225;27;20508;-74
2022/11/14 02:05:05;;;;;;;43.85;18.83;;;;;;;;;;5138248;27;20048;-74
2022/11/14 02:07:34;;;;;;;40.88;19.00;;;;;;;;;;5138300;27;20043;-74
2022/11/14 02:10:04;;;;;;;39.30;18.63;;;;;;;;;;5124718;27;20052;-74
2022/11/14 02:12:32;;;;;;;39.95;20.27;;;;;;;;;;5134799;27;20065;-74
2022/11/14 02:15:00;;;;;;;39.17;19.40;;;;;;;;;;5125366;27;20058;-74
2022/11/14 02:17:30;;;;;;;34.78;18.67;;;;;;;;;;5135978;27;20142;-74
2022/11/14 02:20:10;;;;;;;37.17;19.05;;;;;;;;;;5132513;27;20060;-74
2022/11/14 02:22:41;;;;;;;41.88;19.48;;;;;;;;;;5137299;27;20960;-74
2022/11/14 02:25:09;;;;;;;44.15;19.17;;;;;;;;;;5141088;27;20047;-74
2022/11/14 02:27:37;;;;;;;42.95;20.08;;;;;;;;;;5131298;27;20273;-74
2022/11/14 02:30:06;;;;;;;40.97;19.55;;;;;;;;;;5137310;27;20039;-74
2022/11/14 02:32:33;;;;;;;39.25;18.98;;;;;;;;;;5138658;27;20039;-74
2022/11/14 02:35:21;;;;;;;42.35;20.60;;;;;;;;;;5130880;27;20051;-74
2022/11/14 02:37:48;;;;;;;43.95;21.08;;;;;;;;;;5132588;27;21295;-74
2022/11/14 02:40:15;;;;;;;44.83;20.17;;;;;;;;;;5138649;27;20051;-74
2022/11/14 02:42:42;;;;;;;41.33;19.85;;;;;;;;;;5137272;27;20048;-74
2022/11/14 02:45:10;;;;;;;41.38;20.17;;;;;;;;;;5132013;27;20060;-74
2022/11/14 02:47:41;;;;;;;36.20;19.35;;;;;;;;;;5136598;27;20224;-74
2022/11/14 02:50:08;;;;;;;44.45;20.08;;;;;;;;;;5142211;27;20078;-74
2022/11/14 02:52:36;;;;;;;41.40;19.70;;;;;;;;;;5134378;27;20882;-74
2022/11/14 02:55:04;;;;;;;42.70;20.00;;;;;;;;;;5137102;27;20058;-74
2022/11/14 02:57:31;;;;;;;48.88;21.55;;;;;;;;;;5132859;27;20052;-74
2022/11/14 02:59:58;;;;;;;48.17;21.45;;;;;;;;;;5133754;27;20044;-74
2022/11/14 03:02:25;;;;;;;44.47;20.77;;;;;;;;;;5130545;27;20050;-74
2022/11/14 03:04:52;;;;;;;45.78;21.23;;;;;;;;;;5135068;27;20043;-74
2022/11/14 03:07:20;;;;;;;48.50;22.08;;;;;;;;;;5125734;27;20123;-74
2022/11/14 03:09:48;;;;;;;45.10;20.85;;;;;;;;;;5139543;27;20481;-74
2022/11/14 03:12:16;;;;;;;44.88;19.98;;;;;;;;;;5121619;27;20052;-74
2022/11/14 03:14:44;;;;;;;47.70;20.92;;;;;;;;;;5143991;27;20047;-74
2022/11/14 03:17:11;;;;;;;48.10;21.63;;;;;;;;;;5139544;27;20055;-74
2022/11/14 03:19:39;;;;;;;48.72;20.10;;;;;;;;;;5135899;27;20056;-74
2022/11/14 03:22:07;;;;;;;51.60;22.17;;;;;;;;;;5134770;27;20051;-74
2022/11/14 03:24:36;;;;;;;48.83;20.55;;;;;;;;;;5132021;27;20068;-74
2022/11/14 03:27:04;;;;;;;43.55;19.98;;;;;;;;;;5129844;27;20751;-74
2022/11/14 03:29:31;;;;;;;48.92;21.23;;;;;;;;;;5136204;27;20059;-74
2022/11/14 03:31:58;;;;;;;47.92;21.50;;;;;;;;;;5141622;27;20549;-74
2022/11/14 03:34:25;;;;;;;46.53;20.15;;;;;;;;;;5136125;27;20083;-74
2022/11/14 03:36:53;;;;;;;50.22;20.33;;;;;;;;;;5131709;27;20050;-74
2022/11/14 03:39:23;;;;;;;52.15;22.75;;;;;;;;;;5128257;27;20047;-74
2022/11/14 03:41:50;;;;;;;48.58;21.45;;;;;;;;;;5138556;27;20139;-75
2022/11/14 03:44:21;;;;;;;47.65;21.20;;;;;;;;;;5111744;27;20055;-74
2022/11/14 03:46:49;;;;;;;44.15;20.30;;;;;;;;;;5119054;27;20043;-74
2022/11/14 03:49:16;;;;;;;50.22;21.48;;;;;;;;;;5138928;27;20051;-74
2022/11/14 03:51:43;;;;;;;50.88;21.75;;;;;;;;;;5134990;27;20048;-74
2022/11/14 03:54:11;;;;;;;53.22;22.45;;;;;;;;;;5136077;27;20047;-75
2022/11/14 03:56:38;;;;;;;46.13;21.55;;;;;;;;;;5131861;27;20058;-74
2022/11/14 03:59:05;;;;;;;45.80;20.73;;;;;;;;;;5142732;27;20043;-74
2022/11/14 04:01:32;;;;;;;45.30;19.80;;;;;;;;;;5134501;27;20051;-75
2022/11/14 04:03:59;;;;;;;43.08;19.83;;;;;;;;;;5133600;27;20071;-74
2022/11/14 04:06:28;;;;;;;53.90;21.88;;;;;;;;;;5124066;27;20059;-74
2022/11/14 04:08:55;;;;;;;48.42;21.85;;;;;;;;;;5131620;27;20083;-74
2022/11/14 04:11:23;;;;;;;56.38;21.98;;;;;;;;;;5135310;27;20055;-74
2022/11/14 04:13:50;;;;;;;50.13;20.90;;;;;;;;;;5119497;27;20047;-74
2022/11/14 04:16:17;;;;;;;48.38;20.65;;;;;;;;;;5136519;27;20129;-74
2022/11/14 04:18:44;;;;;;;46.83;21.27;;;;;;;;;;5141038;27;20833;-74
2022/11/14 04:21:12;;;;;;;48.17;20.98;;;;;;;;;;5140098;27;20109;-74
2022/11/14 04:23:40;;;;;;;47.63;21.08;;;;;;;;;;5140195;27;20044;-74
2022/11/14 04:26:07;;;;;;;48.53;20.65;;;;;;;;;;5131026;27;20059;-74
2022/11/14 04:28:34;;;;;;;53.97;20.50;;;;;;;;;;5117047;27;20058;-74
2022/11/14 04:31:01;;;;;;;47.85;20.63;;;;;;;;;;5133600;27;20884;-73
2022/11/14 04:33:28;;;;;;;52.10;21.05;;;;;;;;;;5140473;27;20047;-74
2022/11/14 04:35:56;;;;;;;45.33;19.30;;;;;;;;;;5137534;27;20143;-74
2022/11/14 04:38:23;;;;;;;46.30;20.40;;;;;;;;;;5138091;27;20047;-73
2022/11/14 04:40:53;;;;;;;48.90;20.38;;;;;;;;;;5135613;27;20417;-74
2022/11/14 04:43:21;;;;;;;46.92;19.52;;;;;;;;;;5138146;27;20094;-74
2022/11/14 04:45:48;;;;;;;43.05;19.77;;;;;;;;;;5141377;27;20047;-74
2022/11/14 04:48:16;;;;;;;42.17;19.40;;;;;;;;;;5140084;27;20104;-74
2022/11/14 04:50:44;;;;;;;51.15;20.85;;;;;;;;;;5141066;27;20094;-74
2022/11/14 04:53:12;;;;;;;43.17;19.85;;;;;;;;;;5136892;27;20050;-74
2022/11/14 04:55:39;;;;;;;46.03;19.20;;;;;;;;;;5123847;27;20077;-74
2022/11/14 04:58:06;;;;;;;47.33;19.38;;;;;;;;;;5146307;27;20936;-74
2022/11/14 05:00:33;;;;;;;46.70;19.60;;;;;;;;;;5120644;27;20141;-74
2022/11/14 05:03:04;;;;;;;46.38;18.85;;;;;;;;;;5122189;27;20050;-74
2022/11/14 05:05:32;;;;;;;46.72;19.98;;;;;;;;;;5134649;27;20592;-74
2022/11/14 05:08:05;;;;;;;39.47;18.35;;;;;;;;;;5139745;27;20051;-74
2022/11/14 05:10:32;;;;;;;42.60;19.13;;;;;;;;;;5129289;27;20050;-74
2022/11/14 05:12:59;;;;;;;44.38;18.40;;;;;;;;;;5127407;27;20042;-74
2022/11/14 05:15:27;;;;;;;45.00;19.58;;;;;;;;;;5139916;27;20047;-74
2022/11/14 05:17:56;;;;;;;41.10;18.83;;;;;;;;;;5134677;27;20047;-74
2022/11/14 05:20:23;;;;;;;45.65;18.88;;;;;;;;;;5144295;27;20757;-74
2022/11/14 05:22:55;;;;;;;42.35;19.73;;;;;;;;;;5142192;27;20043;-74
2022/11/14 05:25:22;;;;;;;47.53;18.75;;;;;;;;;;5137945;27;20054;-74
2022/11/14 05:27:50;;;;;;;50.95;19.38;;;;;;;;;;5142552;27;20047;-73
2022/11/14 05:30:17;;;;;;;38.85;18.10;;;;;;;;;;5125666;27;20048;-74
2022/11/14 05:32:44;;;;;;;43.58;18.40;;;;;;;;;;5133578;27;20060;-74
2022/11/14 05:35:12;;;;;;;47.53;20.90;;;;;;;;;;5135533;27;20047;-74
2022/11/14 05:37:39;;;;;;;52.45;22.45;;;;;;;;;;5143740;27;20054;-74
2022/11/14 05:40:06;;;;;;;50.80;20.70;;;;;;;;;;5144706;27;20047;-74
2022/11/14 05:42:33;;;;;;;43.35;19.88;;;;;;;;;;5146186;27;20047;-74
2022/11/14 05:45:04;;;;;;;41.17;19.20;;;;;;;;;;5137749;27;20052;-74
2022/11/14 05:47:31;;;;;;;40.60;18.58;;;;;;;;;;5138146;27;20051;-73
2022/11/14 05:49:58;;;;;;;43.58;18.38;;;;;;;;;;5146266;27;20051;-74
2022/11/14 05:52:25;;;;;;;44.15;18.33;;;;;;;;;;5141296;27;20690;-74
2022/11/14 05:54:52;;;;;;;35.83;17.52;;;;;;;;;;5115452;27;20055;-74
2022/11/14 05:57:19;;;;;;;44.72;18.40;;;;;;;;;;5118911;27;20073;-74
2022/11/14 05:59:48;;;;;;;43.45;19.27;;;;;;;;;;5120568;27;20070;-74
2022/11/14 06:02:16;;;;;;;35.35;17.35;;;;;;;;;;5140723;27;20052;-73
2022/11/14 06:04:43;;;;;;;44.42;17.70;;;;;;;;;;5132443;27;20054;-74
2022/11/14 06:07:11;;;;;;;41.25;17.35;;;;;;;;;;5135629;27;20141;-74
2022/11/14 06:09:45;;;;;;;43.83;17.90;;;;;;;;;;5142985;27;20102;-74
2022/11/14 06:12:12;;;;;;;42.78;17.42;;;;;;;;;;5128254;27;20062;-73
2022/11/14 06:14:40;;;;;;;43.05;18.08;;;;;;;;;;5126828;27;20047;-74
2022/11/14 06:17:07;;;;;;;41.75;17.67;;;;;;;;;;5137754;27;20052;-73
2022/11/14 06:19:34;;;;;;;42.25;18.25;;;;;;;;;;5132970;27;20051;-74
2022/11/14 06:22:02;;;;;;;41.55;17.85;;;;;;;;;;5103974;28;20097;-74
2022/11/14 06:24:30;;;;;;;47.75;18.65;;;;;;;;;;5118693;27;20052;-73
2022/11/14 06:26:57;;;;;;;42.83;18.20;;;;;;;;;;5107443;27;20047;-74
2022/11/14 06:29:25;;;;;;;38.38;16.95;;;;;;;;;;5124751;27;20794;-74
2022/11/14 06:31:57;;;;;;;34.72;16.25;;;;;;;;;;5114097;27;20098;-73
2022/11/14 06:34:27;;;;;;;35.78;15.98;;;;;;;;;;5104336;27;20039;-74
2022/11/14 06:36:54;;;;;;;40.30;17.60;;;;;;;;;;5119046;27;20090;-73
2022/11/14 06:39:22;;;;;;;38.53;16.55;;;;;;;;;;5119526;27;20052;-74
2022/11/14 06:41:50;;;;;;;39.70;16.90;;;;;;;;;;5117781;27;20106;-74
2022/11/14 06:44:18;;;;;;;34.17;15.77;;;;;;;;;;5108260;27;20094;-74
2022/11/14 06:46:45;;;;;;;41.30;16.52;;;;;;;;;;5123006;27;20048;-74
2022/11/14 06:49:12;;;;;;;33.47;15.30;;;;;;;;;;5121570;27;20052;-74
2022/11/14 06:51:40;;;;;;;36.50;15.88;;;;;;;;;;5113797;27;20052;-74
2022/11/14 06:54:11;;;;;;;34.35;15.40;;;;;;;;;;5114800;27;20109;-74
2022/11/14 06:56:38;;;;;;;35.55;15.13;;;;;;;;;;5115167;27;20059;-73
2022/11/14 06:59:05;;;;;;;29.92;14.38;;;;;;;;;;5107144;27;20055;-74
2022/11/14 07:01:32;;;;;;;31.38;14.57;;;;;;;;;;5119065;27;20134;-74
2022/11/14 07:04:01;;;;;;;37.35;15.70;;;;;;;;;;5106538;27;20047;-74
2022/11/14 07:06:29;;;;;;;42.80;15.50;;;;;;;;;;5122823;27;20063;-74
2022/11/14 07:08:57;;;;;;;37.67;15.90;;;;;;;;;;5102804;27;20059;-74
2022/11/14 07:11:28;;;;;;;40.73;16.33;;;;;;;;;;5116514;27;20074;-73
2022/11/14 07:13:57;;;;;;;35.53;15.90;;;;;;;;;;5101350;27;20071;-74
2022/11/14 07:16:28;;;;;;;42.30;16.70;;;;;;;;;;5118720;27;20051;-74
2022/11/14 07:18:56;;;;;;;35.65;15.63;;;;;;;;;;5119809;27;20875;-74
2022/11/14 07:21:24;;;;;;;49.40;16.25;;;;;;;;;;5145052;27;20052;-74
2022/11/14 07:23:59;;;;;;;37.60;15.98;;;;;;;;;;5123593;27;20062;-74
2022/11/14 07:26:26;;;;;;;40.95;16.58;;;;;;;;;;5136373;27;20061;-74
2022/11/14 07:28:55;;;;;;;35.72;15.75;;;;;;;;;;5141648;27;20051;-74
2022/11/14 07:31:28;;;;;;;39.95;16.17;;;;;;;;;;5135647;27;20499;-74
2022/11/14 07:33:56;;;;;;;36.08;16.17;;;;;;;;;;5118168;27;20043;-74
2022/11/14 07:36:23;;;;;;;44.05;17.52;;;;;;;;;;5137622;27;20663;-74
2022/11/14 07:38:59;;;;;;;47.38;18.42;;;;;;;;;;5142889;27;20575;-74
2022/11/14 07:41:27;;;;;;;48.35;18.67;;;;;;;;;;5118407;27;20051;-73
2022/11/14 07:43:54;;;;;;;56.17;18.98;;;;;;;;;;5136682;27;20101;-73
2022/11/14 07:46:21;;;;;;;46.03;17.50;;;;;;;;;;5131146;27;20044;-73
2022/11/14 07:48:48;;;;;;;45.33;17.35;;;;;;;;;;5137829;27;20405;-74
2022/11/14 07:51:16;;;;;;;47.92;18.10;;;;;;;;;;5130650;27;20306;-73
2022/11/14 07:53:44;;;;;;;47.00;18.40;;;;;;;;;;5138450;27;20999;-74
2022/11/14 07:56:12;;;;;;;41.13;17.23;;;;;;;;;;5112333;27;20130;-74
2022/11/14 07:58:40;;;;;;;45.13;18.17;;;;;;;;;;5137695;27;20043;-73
2022/11/14 08:01:09;;;;;;;48.47;18.15;;;;;;;;;;5139086;27;20043;-74
2022/11/14 08:03:37;;;;;;;49.47;18.65;;;;;;;;;;5144972;27;20051;-73
2022/11/14 08:06:12;;;;;;;48.08;18.90;;;;;;;;;;5140690;27;20058;-74
2022/11/14 08:08:39;;;;;;;54.15;19.60;;;;;;;;;;5128765;27;20047;-74
2022/11/14 08:11:07;;;;;;;54.10;18.27;;;;;;;;;;5137225;27;20039;-74
2022/11/14 08:13:34;;;;;;;44.90;18.50;;;;;;;;;;5145157;27;20047;-74
2022/11/14 08:16:05;;;;;;;49.25;20.23;;;;;;;;;;5138775;27;20054;-74
2022/11/14 08:18:39;;;;;;;45.65;19.33;;;;;;;;;;5138941;27;20123;-74
2022/11/14 08:21:06;;;;;;;43.28;17.77;;;;;;;;;;5135970;27;20047;-73
2022/11/14 08:23:34;;;;;;;44.30;18.60;;;;;;;;;;5138378;27;22154;-74
2022/11/14 08:26:01;;;;;;;44.30;17.73;;;;;;;;;;5133463;27;20083;-74
2022/11/14 08:28:29;;;;;;;44.20;18.02;;;;;;;;;;5136764;27;20052;-74
2022/11/14 08:31:01;;;;;;;41.95;18.67;;;;;;;;;;5142200;27;21054;-73
2022/11/14 08:33:28;;;;;;;43.92;18.15;;;;;;;;;;5138934;27;20141;-74
2022/11/14 08:36:00;;;;;;;42.45;17.88;;;;;;;;;;5135818;27;20910;-74
2022/11/14 08:38:27;;;;;;;34.15;17.05;;;;;;;;;;5144926;27;20047;-74
2022/11/14 08:40:59;;;;;;;37.55;17.05;;;;;;;;;;5139126;27;20039;-74
2022/11/14 08:43:27;;;;;;;32.90;16.75;;;;;;;;;;5136375;27;20048;-75
2022/11/14 08:45:59;;;;;;;37.95;17.30;;;;;;;;;;5144330;27;20043;-74
2022/11/14 08:48:28;;;;;;;34.97;17.58;;;;;;;;;;5141721;27;20058;-74
2022/11/14 08:50:56;;;;;;;33.67;16.67;;;;;;;;;;5139874;27;20055;-74
2022/11/14 08:53:24;;;;;;;37.58;16.85;;;;;;;;;;5147780;27;20051;-74
2022/11/14 08:55:54;;;;;;;37.47;17.20;;;;;;;;;;5129044;27;20141;-74
2022/11/14 08:58:21;;;;;;;35.08;17.85;;;;;;;;;;5134633;27;20047;-74
2022/11/14 09:00:50;;;;;;;33.75;16.60;;;;;;;;;;5123491;27;20101;-74
2022/11/14 09:03:18;;;;;;;35.63;16.65;;;;;;;;;;5148729;27;20104;-74
2022/11/14 09:05:50;;;;;;;29.02;16.08;;;;;;;;;;5144318;27;20047;-74
2022/11/14 09:08:17;;;;;;;29.05;14.60;;;;;;;;;;5143098;27;20059;-74
2022/11/14 09:10:45;;;;;;;29.33;14.23;;;;;;;;;;5148818;27;20458;-74
2022/11/14 09:13:13;;;;;;;30.48;14.80;;;;;;;;;;5141002;27;20482;-74
2022/11/14 09:15:41;;;;;;;26.77;13.77;;;;;;;;;;5139190;27;20058;-74
2022/11/14 09:18:10;;;;;;;26.23;13.65;;;;;;;;;;5142827;27;20104;-74
2022/11/14 09:20:38;;;;;;;23.13;12.38;;;;;;;;;;5136561;27;20079;-74
2022/11/14 09:23:07;;;;;;;23.45;12.32;;;;;;;;;;5143030;27;20092;-74
2022/11/14 09:25:35;;;;;;;25.73;12.77;;;;;;;;;;5125354;27;20050;-74
2022/11/14 09:28:03;;;;;;;21.25;12.60;;;;;;;;;;5140761;27;20105;-74
2022/11/14 09:30:31;;;;;;;21.63;11.40;;;;;;;;;;5136957;27;20082;-75
2022/11/14 09:33:00;;;;;;;24.13;12.00;;;;;;;;;;5142584;27;20106;-74
2022/11/14 09:35:35;;;;;;;20.98;12.52;;;;;;;;;;5134636;27;20408;-74
2022/11/14 09:38:06;;;;;;;19.35;11.05;;;;;;;;;;5138623;27;20534;-74
2022/11/14 09:40:51;;;;;;;18.33;10.43;;;;;;;;;;5148644;27;20058;-74
2022/11/14 09:43:33;;;;;;;19.88;10.60;;;;;;;;;;5124627;27;20062;-74
2022/11/14 09:46:11;;;;;;;18.58;10.85;;;;;;;;;;5128142;27;20717;-74
2022/11/14 09:48:38;;;;;;;18.40;11.05;;;;;;;;;;5117710;27;20508;-75
2022/11/14 09:51:06;;;;;;;23.00;10.85;;;;;;;;;;5136015;27;20127;-74
2022/11/14 09:53:49;;;;;;;15.82;9.93;;;;;;;;;;5138752;27;20848;-74
2022/11/14 09:56:20;;;;;;;18.98;10.00;;;;;;;;;;5140646;27;20063;-75
2022/11/14 09:58:56;;;;;;;20.15;10.70;;;;;;;;;;5119642;27;20136;-75
2022/11/14 10:01:42;;;;;;;21.10;10.77;;;;;;;;;;5138249;27;20074;-75
2022/11/14 10:04:22;;;;;;;18.42;10.65;;;;;;;;;;5135899;27;20052;-75
2022/11/14 10:07:11;;;;;;;20.33;11.15;;;;;;;;;;5138057;27;20051;-74
2022/11/14 10:09:45;;;;;;;21.63;11.40;;;;;;;;;;5137901;27;20078;-75
2022/11/14 10:12:26;;;;;;;18.55;11.25;;;;;;;;;;5140451;27;20055;-75
2022/11/14 10:14:59;;;;;;;22.33;10.43;;;;;;;;;;5129421;27;20047;-75
2022/11/14 10:17:40;;;;;;;19.48;10.45;;;;;;;;;;5144178;27;20058;-75
2022/11/14 10:20:15;;;;;;;19.92;11.05;;;;;;;;;;5137677;27;20050;-74
2022/11/14 10:22:57;;;;;;;20.83;10.48;;;;;;;;;;5142856;27;20047;-74
2022/11/14 10:25:36;;;;;;;24.02;10.68;;;;;;;;;;5134633;27;20054;-75
2022/11/14 10:28:19;;;;;;;19.65;10.55;;;;;;;;;;5132748;27;20048;-74
2022/11/14 10:31:06;;;;;;;17.83;11.30;;;;;;;;;;5144743;27;20043;-75
2022/11/14 10:33:47;;;;;;;17.30;10.38;;;;;;;;;;5144503;27;20051;-75
2022/11/14 10:36:23;;;;;;;16.65;10.23;;;;;;;;;;5135696;27;20075;-75
2022/11/14 10:39:09;;;;;;;19.27;10.48;;;;;;;;;;5132962;27;20051;-74
2022/11/14 10:41:36;;;;;;;;;;;;;;;;;;5134297;27;20046;-75
2022/11/14 10:44:26;;;;;;;17.27;10.57;;;;;;;;;;5137044;27;19927;-75
2022/11/14 10:46:55;;;;;;;15.02;9.70;;;;;;;;;;5132063;27;20052;-74
2022/11/14 10:49:23;;;;;;;18.08;10.95;;;;;;;;;;5132085;27;20048;-75
2022/11/14 10:51:56;;;;;;;18.25;11.13;;;;;;;;;;5139012;27;20051;-75
2022/11/14 10:54:41;;;;;;;22.33;11.00;;;;;;;;;;5144128;27;20107;-74
2022/11/14 10:57:17;;;;;;;17.05;10.88;;;;;;;;;;5145972;27;20047;-75
2022/11/14 10:59:44;;;;;;;18.38;10.73;;;;;;;;;;5137844;27;20050;-75
2022/11/14 11:02:12;;;;;;;17.70;11.15;;;;;;;;;;5121193;27;20058;-75
2022/11/14 11:04:43;;;;;;;17.17;10.43;;;;;;;;;;5143562;27;20090;-75
2022/11/14 11:11:28;;;;;;;19.88;10.95;;;;;;;;;;5125666;27;20096;-75
2022/11/14 11:12:53;;;;;;;19.48;11.05;;;;;;;;;;5133509;27;20100;-75
2022/11/14 11:15:20;;;;;;;21.98;11.60;;;;;;;;;;5132368;27;20055;-75
2022/11/14 11:17:55;;;;;;;17.38;10.75;;;;;;;;;;5122119;27;20052;-75
2022/11/14 11:20:35;;;;;;;17.77;10.77;;;;;;;;;;5138847;27;20055;-75
2022/11/14 11:23:05;;;;;;;23.25;11.38;;;;;;;;;;5143004;27;20061;-74
2022/11/14 11:25:33;;;;;;;17.50;10.95;;;;;;;;;;5134864;27;20048;-75
2022/11/14 11:28:14;;;;;;;17.05;11.10;;;;;;;;;;5136765;27;20051;-74
2022/11/14 11:30:55;;;;;;;19.05;11.48;;;;;;;;;;5130636;27;20054;-74
2022/11/14 11:33:24;;;;;;;21.15;11.05;;;;;;;;;;5143547;27;20051;-74
2022/11/14 11:35:55;;;;;;;18.55;10.57;;;;;;;;;;5142403;27;20046;-74
2022/11/14 11:38:24;;;;;;;21.05;11.73;;;;;;;;;;5137660;27;20051;-74
2022/11/14 11:40:54;;;;;;;17.80;10.88;;;;;;;;;;5138205;27;20054;-74
2022/11/14 11:43:30;;;;;;;19.73;10.88;;;;;;;;;;5127241;27;20507;-75
2022/11/14 11:46:40;;;;;;;19.27;11.10;;;;;;;;;;5135460;27;20062;-75
2022/11/14 11:49:31;;;;;;;19.50;10.88;;;;;;;;;;5130906;27;20057;-75
2022/11/14 11:52:03;;;;;;;19.25;11.35;;;;;;;;;;5121800;27;20052;-75
2022/11/14 11:54:32;;;;;;;20.83;12.13;;;;;;;;;;5135480;27;20051;-75
2022/11/14 11:57:09;;;;;;;19.92;11.05;;;;;;;;;;5136838;27;20514;-75
2022/11/14 11:59:40;;;;;;;17.48;10.50;;;;;;;;;;5137357;27;20060;-74
2022/11/14 12:02:16;;;;;;;18.05;10.52;;;;;;;;;;5143780;27;20051;-75
2022/11/14 12:04:44;;;;;;;25.83;11.65;;;;;;;;;;5124281;27;20080;-74
2022/11/14 12:07:17;;;;;;;18.75;11.32;;;;;;;;;;5134908;27;20444;-75
2022/11/14 12:09:44;;;;;;;19.80;11.60;;;;;;;;;;5110908;27;20051;-74
2022/11/14 12:12:38;;;;;;;20.33;10.80;;;;;;;;;;5138666;27;20064;-74
2022/11/14 12:15:11;;;;;;;22.17;12.25;;;;;;;;;;5138674;27;20051;-75
2022/11/14 12:17:50;;;;;;;21.60;11.35;;;;;;;;;;5115859;27;20054;-74
2022/11/14 12:20:32;;;;;;;22.35;11.98;;;;;;;;;;5129515;27;20052;-74
2022/11/14 12:23:19;;;;;;;19.83;11.57;;;;;;;;;;5130491;27;20471;-75
2022/11/14 12:26:06;;;;;;;20.13;12.57;;;;;;;;;;5135813;27;20065;-74
2022/11/14 12:28:43;;;;;;;22.40;12.77;;;;;;;;;;5139442;27;20052;-75
2022/11/14 12:31:13;;;;;;;25.85;15.00;;;;;;;;;;5138648;27;20051;-75
2022/11/14 12:33:48;;;;;;;25.70;15.82;;;;;;;;;;5141911;27;20057;-75
2022/11/14 12:36:15;;;;;;;28.77;16.38;;;;;;;;;;5135533;27;20146;-74
2022/11/14 12:38:47;;;;;;;29.15;17.52;;;;;;;;;;5141455;27;20051;-75
2022/11/14 12:41:30;;;;;;;26.02;16.08;;;;;;;;;;5134325;27;20051;-74
2022/11/14 12:44:16;;;;;;;26.80;15.95;;;;;;;;;;5140167;27;20542;-75
2022/11/14 12:47:12;;;;;;;26.25;15.40;;;;;;;;;;5138162;27;20131;-74
2022/11/14 12:49:48;;;;;;;25.73;15.65;;;;;;;;;;5137228;27;20974;-75
2022/11/14 12:52:34;;;;;;;27.13;15.95;;;;;;;;;;5118090;27;20048;-75
2022/11/14 12:55:02;;;;;;;28.83;17.55;;;;;;;;;;5133774;27;20056;-75
2022/11/14 12:57:47;;;;;;;26.15;15.13;;;;;;;;;;5139172;27;20052;-75
2022/11/14 13:00:15;;;;;;;31.85;17.20;;;;;;;;;;5133947;27;20082;-74
2022/11/14 13:02:45;;;;;;;25.23;15.55;;;;;;;;;;5135566;27;20927;-75
2022/11/14 13:05:33;;;;;;;27.77;15.80;;;;;;;;;;5130583;27;20052;-74
2022/11/14 13:08:03;;;;;;;27.10;15.57;;;;;;;;;;5082854;27;20103;-75
2022/11/14 13:10:32;;;;;;;26.77;16.27;;;;;;;;;;5140043;27;20070;-75
2022/11/14 13:22:07;;;;;;;26.58;15.95;;;;;;;;;;5120159;27;20056;-75
2022/11/14 13:25:09;;;;;;;26.33;15.27;;;;;;;;;;5116763;27;20048;-75
2022/11/14 13:27:37;;;;;;;30.70;15.88;;;;;;;;;;5122599;27;20052;-74
2022/11/14 13:30:43;;;;;;;29.98;16.08;;;;;;;;;;5120756;27;20052;-75
2022/11/14 13:33:30;;;;;;;33.03;16.42;;;;;;;;;;5122673;27;20052;-75
2022/11/14 13:36:01;;;;;;;27.92;16.55;;;;;;;;;;5119800;27;20054;-74
2022/11/14 13:38:40;;;;;;;29.20;15.63;;;;;;;;;;5115310;27;20105;-74
2022/11/14 13:41:26;;;;;;;27.95;15.93;;;;;;;;;;5122662;27;20054;-75
2022/11/14 13:44:13;;;;;;;28.55;15.50;;;;;;;;;;5120402;27;20134;-74
2022/11/14 13:46:59;;;;;;;28.35;16.10;;;;;;;;;;5123720;27;20048;-74
2022/11/14 13:49:27;;;;;;;25.08;15.52;;;;;;;;;;5113799;27;20048;-74
2022/11/14 13:51:54;;;;;;;30.27;16.58;;;;;;;;;;5123890;27;20048;-74
2022/11/14 13:54:21;;;;;;;29.25;16.73;;;;;;;;;;5105247;27;20093;-75
2022/11/14 13:56:59;;;;;;;28.45;16.17;;;;;;;;;;5120259;27;20051;-74
2022/11/14 13:59:36;;;;;;;30.05;17.33;;;;;;;;;;5110367;27;20083;-74
2022/11/14 14:02:09;;;;;;;32.25;17.50;;;;;;;;;;5122011;27;20051;-75
2022/11/14 14:04:45;;;;;;;30.08;17.02;;;;;;;;;;5119885;27;20082;-74
2022/11/14 14:07:34;;;;;;;28.73;16.95;;;;;;;;;;5121007;27;20883;-75
2022/11/14 14:10:14;;;;;;;34.42;18.63;;;;;;;;;;5121238;27;20058;-75
2022/11/14 14:12:44;;;;;;;34.22;17.50;;;;;;;;;;5118441;27;20544;-74
2022/11/14 14:15:14;;;;;;;37.03;18.75;;;;;;;;;;5121516;27;20058;-75
2022/11/14 14:17:50;;;;;;;34.83;19.52;;;;;;;;;;5122471;27;20055;-75
2022/11/14 14:20:37;;;;;;;41.65;20.50;;;;;;;;;;5135633;27;20065;-74
2022/11/14 14:23:23;;;;;;;40.20;20.95;;;;;;;;;;5136650;27;20051;-75
2022/11/14 14:25:58;;;;;;;40.70;20.13;;;;;;;;;;5137479;27;20147;-75
2022/11/14 14:28:26;;;;;;;36.58;20.13;;;;;;;;;;5145429;27;20909;-74
2022/11/14 14:31:01;;;;;;;41.78;19.58;;;;;;;;;;5139889;27;20054;-75
2022/11/14 14:33:30;;;;;;;39.17;19.92;;;;;;;;;;5147521;27;20058;-74
2022/11/14 14:35:57;;;;;;;36.10;20.48;;;;;;;;;;5137705;27;20104;-74
2022/11/14 14:38:26;;;;;;;38.17;20.75;;;;;;;;;;5141029;27;20055;-75
2022/11/14 14:40:54;;;;;;;39.00;20.02;;;;;;;;;;5139317;27;20048;-74
2022/11/14 14:43:29;;;;;;;38.38;20.45;;;;;;;;;;5125068;27;20128;-74
2022/11/14 14:45:57;;;;;;;36.97;19.00;;;;;;;;;;5140477;27;20059;-74
2022/11/14 14:48:27;;;;;;;39.42;20.77;;;;;;;;;;5133972;27;20048;-74
2022/11/14 14:50:56;;;;;;;35.38;19.55;;;;;;;;;;5116549;27;20894;-74
2022/11/14 14:53:26;;;;;;;38.25;19.85;;;;;;;;;;5140400;27;20057;-74